createdAt,value
2019-06-26T00:01:12.725Z,27.32
2019-06-26T00:03:41.403Z,27.33
2019-06-26T00:06:10.088Z,27.36
2019-06-26T00:08:38.728Z,27.29
2019-06-26T00:11:07.357Z,27.20
2019-06-26T00:13:36.060Z,27.10
2019-06-26T00:16:04.743Z,26.98
2019-06-26T00:18:33.442Z,26.92
2019-06-26T00:21:02.062Z,27.03
2019-06-26T00:23:30.711Z,27.03
2019-06-26T00:25:59.345Z,27.04
2019-06-26T00:28:28.025Z,26.99
2019-06-26T00:30:56.724Z,27.01
2019-06-26T00:33:25.439Z,26.97
2019-06-26T00:35:54.044Z,26.91
2019-06-26T00:38:22.748Z,26.86
2019-06-26T00:40:51.403Z,26.84
2019-06-26T00:43:20.107Z,26.88
2019-06-26T00:45:48.737Z,26.83
2019-06-26T00:48:17.452Z,26.80
2019-06-26T00:50:46.069Z,26.70
2019-06-26T00:53:14.784Z,26.67
2019-06-26T00:55:43.499Z,26.59
2019-06-26T00:58:12.258Z,26.63
2019-06-26T01:00:49.622Z,26.61
2019-06-26T01:03:18.263Z,26.63
2019-06-26T01:05:46.877Z,26.63
2019-06-26T01:08:15.533Z,26.54
2019-06-26T01:10:44.212Z,26.39
2019-06-26T01:13:14.249Z,26.27
2019-06-26T01:15:43.044Z,26.17
2019-06-26T01:18:11.730Z,26.09
2019-06-26T01:20:40.341Z,25.98
2019-06-26T01:23:08.999Z,25.90
2019-06-26T01:25:37.688Z,25.80
2019-06-26T01:28:06.299Z,25.73
2019-06-26T01:30:35.025Z,25.82
2019-06-26T01:33:03.631Z,25.82
2019-06-26T01:35:32.275Z,25.84
2019-06-26T01:38:00.964Z,25.86
2019-06-26T01:40:30.953Z,25.85
2019-06-26T01:42:59.641Z,25.78
2019-06-26T01:45:28.255Z,25.80
2019-06-26T01:47:56.885Z,25.85
2019-06-26T01:50:26.937Z,25.84
2019-06-26T01:52:55.573Z,25.82
2019-06-26T01:55:24.194Z,25.81
2019-06-26T01:57:52.891Z,25.79
2019-06-26T02:00:21.868Z,25.77
2019-06-26T02:02:50.539Z,25.87
2019-06-26T02:05:19.143Z,25.90
2019-06-26T02:07:47.853Z,25.86
2019-06-26T02:10:16.720Z,25.78
2019-06-26T02:12:45.413Z,25.73
2019-06-26T02:15:14.137Z,25.74
2019-06-26T02:17:42.808Z,25.81
2019-06-26T02:20:11.594Z,25.77
2019-06-26T02:22:40.286Z,25.78
2019-06-26T02:25:08.994Z,25.74
2019-06-26T02:27:37.638Z,25.73
2019-06-26T02:30:07.658Z,25.42
2019-06-26T02:32:36.300Z,25.51
2019-06-26T02:35:09.933Z,25.39
2019-06-26T02:37:37.458Z,25.10
2019-06-26T02:40:09.760Z,24.85
2019-06-26T02:42:40.362Z,24.50
2019-06-26T02:45:10.143Z,24.50
2019-06-26T02:47:38.786Z,24.70
2019-06-26T02:50:12.978Z,24.88
2019-06-26T02:52:41.704Z,24.99
2019-06-26T02:55:10.531Z,25.06
2019-06-26T02:57:39.222Z,25.06
2019-06-26T03:00:08.253Z,24.98
2019-06-26T03:02:36.934Z,25.03
2019-06-26T03:05:06.951Z,25.08
2019-06-26T03:07:35.587Z,25.06
2019-06-26T03:10:06.206Z,25.04
2019-06-26T03:12:35.008Z,24.98
2019-06-26T03:15:09.489Z,24.94
2019-06-26T03:17:53.815Z,25.04
2019-06-26T03:20:08.705Z,24.99
2019-06-26T03:22:37.403Z,25.06
2019-06-26T03:25:06.719Z,24.92
2019-06-26T03:27:35.370Z,25.01
2019-06-26T03:30:05.174Z,25.00
2019-06-26T03:32:33.803Z,25.06
2019-06-26T03:35:02.510Z,24.97
2019-06-26T03:37:32.445Z,25.09
2019-06-26T03:40:01.095Z,25.31
2019-06-26T03:42:29.850Z,25.46
2019-06-26T03:44:58.466Z,25.61
2019-06-26T03:47:27.091Z,25.71
2019-06-26T03:49:55.773Z,25.87
2019-06-26T03:52:24.469Z,25.89
2019-06-26T03:54:53.076Z,25.88
2019-06-26T03:57:21.715Z,26.03
2019-06-26T03:59:50.328Z,26.18
2019-06-26T04:02:18.953Z,26.30
2019-06-26T04:04:47.632Z,26.24
2019-06-26T04:07:17.754Z,26.45
2019-06-26T04:09:48.699Z,26.29
2019-06-26T04:12:17.386Z,26.23
2019-06-26T04:14:46.014Z,26.31
2019-06-26T04:17:14.696Z,26.43
2019-06-26T04:19:43.414Z,26.60
2019-06-26T04:22:13.338Z,26.82
2019-06-26T04:24:42.043Z,26.91
2019-06-26T04:27:10.720Z,27.06
2019-06-26T04:29:39.343Z,27.14
2019-06-26T04:32:08.024Z,27.31
2019-06-26T04:34:36.694Z,27.51
2019-06-26T04:37:05.381Z,27.67
2019-06-26T04:39:34.022Z,27.38
2019-06-26T04:42:02.705Z,27.54
2019-06-26T04:44:31.353Z,27.56
2019-06-26T04:47:00.045Z,27.48
2019-06-26T04:49:28.493Z,27.52
2019-06-26T04:51:57.214Z,27.45
2019-06-26T04:54:25.846Z,27.51
2019-06-26T04:56:54.492Z,27.58
2019-06-26T04:59:23.141Z,27.72
2019-06-26T05:01:51.829Z,27.87
2019-06-26T05:04:21.881Z,28.15
2019-06-26T05:06:50.603Z,28.06
2019-06-26T05:09:20.763Z,28.13
2019-06-26T05:11:49.553Z,28.25
2019-06-26T05:14:18.245Z,28.43
2019-06-26T05:16:46.870Z,28.66
2019-06-26T05:19:15.493Z,28.61
2019-06-26T05:21:44.165Z,28.53
2019-06-26T05:24:12.817Z,28.68
2019-06-26T05:26:41.463Z,28.73
2019-06-26T05:29:10.126Z,29.07
2019-06-26T05:31:38.824Z,29.16
2019-06-26T05:34:10.679Z,29.40
2019-06-26T05:36:39.478Z,29.25
2019-06-26T05:39:08.304Z,29.18
2019-06-26T05:41:36.922Z,29.04
2019-06-26T05:44:05.958Z,29.08
2019-06-26T05:46:34.580Z,29.54
2019-06-26T05:49:03.196Z,29.56
2019-06-26T05:51:32.678Z,29.75
2019-06-26T05:54:01.373Z,30.11
2019-06-26T05:56:29.986Z,30.32
2019-06-26T05:59:00.068Z,30.28
2019-06-26T06:01:28.763Z,30.40
2019-06-26T06:03:57.443Z,30.70
2019-06-26T06:06:40.594Z,30.89
2019-06-26T06:08:56.468Z,31.02
2019-06-26T06:11:25.759Z,31.19
2019-06-26T06:13:54.463Z,31.27
2019-06-26T06:16:23.161Z,31.58
2019-06-26T06:18:51.818Z,31.23
2019-06-26T06:21:20.552Z,31.22
2019-06-26T06:23:49.274Z,31.16
2019-06-26T06:26:17.919Z,30.63
2019-06-26T06:28:46.599Z,31.16
2019-06-26T06:31:15.249Z,31.66
2019-06-26T06:33:43.861Z,31.71
2019-06-26T06:36:12.512Z,31.89
2019-06-26T06:38:41.153Z,31.78
2019-06-26T06:41:09.772Z,31.62
2019-06-26T06:43:38.482Z,31.63
2019-06-26T06:46:09.630Z,32.19
2019-06-26T06:48:38.360Z,32.72
2019-06-26T06:51:07.049Z,32.57
2019-06-26T06:53:35.711Z,31.99
2019-06-26T06:56:04.396Z,32.54
2019-06-26T06:58:33.057Z,31.95
2019-06-26T07:01:01.756Z,32.18
2019-06-26T07:03:30.377Z,31.89
2019-06-26T07:06:00.442Z,32.01
2019-06-26T07:08:29.096Z,32.08
2019-06-26T07:10:59.350Z,30.92
2019-06-26T07:13:27.996Z,31.19
2019-06-26T07:15:59.679Z,31.72
2019-06-26T07:18:28.292Z,32.22
2019-06-26T07:20:57.049Z,31.97
2019-06-26T07:23:25.734Z,32.23
2019-06-26T07:25:54.421Z,32.16
2019-06-26T07:28:23.109Z,32.21
2019-06-26T07:30:51.905Z,32.22
2019-06-26T07:33:21.978Z,32.31
2019-06-26T07:35:50.666Z,32.51
2019-06-26T07:38:19.389Z,32.08
2019-06-26T07:40:48.072Z,32.60
2019-06-26T07:43:16.909Z,32.01
2019-06-26T07:45:45.553Z,31.76
2019-06-26T07:48:14.268Z,32.21
2019-06-26T07:50:42.986Z,32.25
2019-06-26T07:53:12.041Z,32.68
2019-06-26T07:55:40.793Z,32.86
2019-06-26T07:58:09.474Z,33.46
2019-06-26T08:00:38.126Z,32.76
2019-06-26T08:03:06.737Z,32.69
2019-06-26T08:05:35.538Z,31.58
2019-06-26T08:08:06.884Z,31.01
2019-06-26T08:10:35.495Z,30.77
2019-06-26T08:13:04.127Z,31.24
2019-06-26T08:15:32.797Z,31.22
2019-06-26T08:18:01.732Z,32.09
2019-06-26T08:20:30.516Z,32.13
2019-06-26T08:22:59.129Z,32.50
2019-06-26T08:25:27.776Z,32.46
2019-06-26T08:27:56.459Z,33.47
2019-06-26T08:30:25.850Z,33.01
2019-06-26T08:32:54.474Z,33.64
2019-06-26T08:35:23.123Z,32.70
2019-06-26T08:38:08.646Z,33.66
2019-06-26T08:40:22.204Z,32.97
2019-06-26T08:42:50.922Z,32.34
2019-06-26T08:45:20.052Z,32.69
2019-06-26T08:47:50.124Z,32.26
2019-06-26T08:50:19.220Z,32.81
2019-06-26T08:52:49.380Z,33.37
2019-06-26T08:55:19.195Z,33.27
2019-06-26T08:57:47.872Z,33.91
2019-06-26T09:00:16.607Z,33.77
2019-06-26T09:02:45.327Z,34.38
2019-06-26T09:05:14.651Z,34.21
2019-06-26T09:07:43.362Z,33.82
2019-06-26T09:10:13.443Z,33.29
2019-06-26T09:12:42.165Z,34.24
2019-06-26T09:15:11.803Z,35.07
2019-06-26T09:17:43.505Z,34.94
2019-06-26T09:20:12.434Z,33.77
2019-06-26T09:22:41.254Z,33.74
2019-06-26T09:25:21.511Z,33.82
2019-06-26T09:27:41.924Z,33.97
2019-06-26T09:30:10.840Z,33.37
2019-06-26T09:32:39.519Z,33.55
2019-06-26T09:35:08.407Z,33.06
2019-06-26T09:37:37.302Z,33.47
2019-06-26T09:40:06.695Z,34.03
2019-06-26T09:42:35.372Z,34.14
2019-06-26T09:45:05.652Z,34.45
2019-06-26T09:47:34.363Z,34.25
2019-06-26T09:50:04.060Z,34.32
2019-06-26T09:52:32.762Z,33.96
2019-06-26T09:55:01.777Z,34.37
2019-06-26T09:57:30.574Z,34.55
2019-06-26T09:59:59.211Z,34.20
2019-06-26T10:02:27.883Z,34.30
2019-06-26T10:04:56.608Z,33.57
2019-06-26T10:07:29.067Z,33.89
2019-06-26T10:09:57.688Z,34.28
2019-06-26T10:12:26.322Z,34.54
2019-06-26T10:14:55.034Z,34.14
2019-06-26T10:17:23.767Z,34.70
2019-06-26T10:19:54.298Z,34.78
2019-06-26T10:22:22.910Z,34.90
2019-06-26T10:24:51.524Z,34.59
2019-06-26T10:27:20.214Z,34.77
2019-06-26T10:29:48.928Z,34.84
2019-06-26T10:32:18.237Z,34.67
2019-06-26T10:34:46.922Z,34.80
2019-06-26T10:37:15.562Z,35.09
2019-06-26T10:39:44.242Z,36.19
2019-06-26T10:42:12.947Z,36.41
2019-06-26T10:44:41.615Z,35.52
2019-06-26T10:47:10.729Z,36.01
2019-06-26T10:49:39.570Z,35.40
2019-06-26T10:52:08.201Z,35.52
2019-06-26T10:54:36.910Z,35.23
2019-06-26T10:57:05.625Z,35.94
2019-06-26T10:59:34.307Z,36.40
2019-06-26T11:02:03.130Z,36.24
2019-06-26T11:04:31.811Z,36.62
2019-06-26T11:07:00.466Z,37.20
2019-06-26T11:09:29.237Z,36.88
2019-06-26T11:11:57.965Z,36.96
2019-06-26T11:14:26.651Z,36.48
2019-06-26T11:16:56.442Z,36.76
2019-06-26T11:19:25.117Z,37.24
2019-06-26T11:21:53.823Z,37.56
2019-06-26T11:24:22.434Z,37.17
2019-06-26T11:26:58.794Z,37.26
2019-06-26T11:29:27.404Z,36.81
2019-06-26T11:31:56.420Z,36.48
2019-06-26T11:34:25.210Z,37.21
2019-06-26T11:37:03.589Z,37.32
2019-06-26T11:39:24.363Z,37.02
2019-06-26T11:41:53.041Z,37.09
2019-06-26T11:44:21.713Z,36.87
2019-06-26T11:46:50.666Z,37.11
2019-06-26T11:49:19.297Z,37.04
2019-06-26T11:51:47.915Z,36.87
2019-06-26T11:54:16.584Z,36.61
2019-06-26T11:56:45.334Z,36.32
2019-06-26T11:59:13.971Z,36.85
2019-06-26T12:01:42.706Z,37.53
2019-06-26T12:04:11.362Z,37.12
2019-06-26T12:06:39.996Z,38.28
2019-06-26T12:09:08.992Z,37.93
2019-06-26T12:11:37.628Z,37.09
2019-06-26T12:14:06.268Z,36.14
2019-06-26T12:16:34.886Z,36.82
2019-06-26T12:19:03.593Z,37.27
2019-06-26T12:21:32.286Z,36.70
2019-06-26T12:24:00.968Z,37.31
2019-06-26T12:26:31.060Z,37.16
2019-06-26T12:28:59.732Z,38.42
2019-06-26T12:31:28.370Z,37.79
2019-06-26T12:33:57.997Z,36.83
2019-06-26T12:36:26.721Z,36.83
2019-06-26T12:38:55.326Z,37.04
2019-06-26T12:41:23.970Z,37.58
2019-06-26T12:43:52.691Z,37.17
2019-06-26T12:46:21.298Z,37.96
2019-06-26T12:48:50.021Z,37.61
2019-06-26T12:51:18.707Z,36.93
2019-06-26T12:53:47.312Z,37.51
2019-06-26T12:56:15.958Z,36.10
2019-06-26T12:58:44.583Z,36.23
2019-06-26T13:01:13.266Z,36.25
2019-06-26T13:03:41.905Z,36.80
2019-06-26T13:06:14.681Z,36.72
2019-06-26T13:08:43.338Z,36.72
2019-06-26T13:11:12.059Z,37.09
2019-06-26T13:13:42.332Z,36.13
2019-06-26T13:16:11.016Z,36.10
2019-06-26T13:18:41.159Z,36.36
2019-06-26T13:21:09.915Z,35.98
2019-06-26T13:23:40.075Z,36.39
2019-06-26T13:26:08.761Z,37.14
2019-06-26T13:28:42.160Z,37.84
2019-06-26T13:31:10.789Z,37.31
2019-06-26T13:33:39.508Z,37.19
2019-06-26T13:36:08.209Z,36.84
2019-06-26T13:38:39.116Z,36.11
2019-06-26T13:41:07.813Z,36.02
2019-06-26T13:43:36.446Z,35.79
2019-06-26T13:46:05.125Z,36.04
2019-06-26T13:48:33.816Z,36.98
2019-06-26T13:51:09.253Z,36.02
2019-06-26T13:53:32.826Z,36.64
2019-06-26T13:56:01.670Z,36.87
2019-06-26T13:58:30.320Z,36.71
2019-06-26T14:01:01.788Z,37.44
2019-06-26T14:03:30.432Z,38.05
2019-06-26T14:05:59.099Z,37.63
2019-06-26T14:08:28.215Z,37.07
2019-06-26T14:10:56.879Z,37.88
2019-06-26T14:13:25.503Z,37.75
2019-06-26T14:15:54.120Z,37.60
2019-06-26T14:18:22.732Z,37.65
2019-06-26T14:20:51.427Z,38.06
2019-06-26T14:23:20.039Z,37.41
2019-06-26T14:25:49.812Z,36.60
2019-06-26T14:28:19.727Z,37.02
2019-06-26T14:30:48.595Z,36.42
2019-06-26T14:33:17.172Z,36.28
2019-06-26T14:35:45.793Z,36.81
2019-06-26T14:38:14.501Z,36.73
2019-06-26T14:40:43.112Z,36.82
2019-06-26T14:43:15.606Z,36.86
2019-06-26T14:45:44.294Z,36.65
2019-06-26T14:48:12.977Z,35.91
2019-06-26T14:50:41.961Z,36.47
2019-06-26T14:53:10.696Z,36.01
2019-06-26T14:55:39.880Z,36.21
2019-06-26T14:58:08.589Z,35.67
2019-06-26T15:00:37.281Z,36.20
2019-06-26T15:03:05.963Z,36.20
2019-06-26T15:05:34.627Z,36.51
2019-06-26T15:08:04.778Z,36.73
2019-06-26T15:10:33.387Z,36.18
2019-06-26T15:13:02.144Z,35.50
2019-06-26T15:15:30.831Z,36.09
2019-06-26T15:18:02.437Z,36.42
2019-06-26T15:20:38.593Z,35.54
2019-06-26T15:23:07.401Z,34.92
2019-06-26T15:25:36.039Z,34.58
2019-06-26T15:28:04.758Z,34.35
2019-06-26T15:30:33.478Z,34.73
2019-06-26T15:33:02.163Z,34.96
2019-06-26T15:35:30.868Z,34.51
2019-06-26T15:37:59.555Z,34.63
2019-06-26T15:40:28.283Z,34.53
2019-06-26T15:42:56.932Z,35.00
2019-06-26T15:45:25.666Z,34.45
2019-06-26T15:47:54.295Z,34.80
2019-06-26T15:50:22.987Z,34.60
2019-06-26T15:52:51.599Z,34.82
2019-06-26T15:55:21.771Z,34.57
2019-06-26T15:57:51.897Z,34.32
2019-06-26T16:00:20.697Z,34.80
2019-06-26T16:02:49.342Z,35.29
2019-06-26T16:05:18.358Z,34.90
2019-06-26T16:07:47.070Z,34.92
2019-06-26T16:10:15.803Z,35.22
2019-06-26T16:12:46.102Z,35.71
2019-06-26T16:15:14.885Z,35.17
2019-06-26T16:17:50.976Z,34.53
2019-06-26T16:20:20.369Z,34.39
2019-06-26T16:22:49.072Z,34.36
2019-06-26T16:25:20.588Z,34.82
2019-06-26T16:28:04.252Z,34.84
2019-06-26T16:30:19.839Z,34.87
2019-06-26T16:32:48.554Z,34.71
2019-06-26T16:35:17.588Z,34.55
2019-06-26T16:37:46.206Z,34.57
2019-06-26T16:40:15.352Z,34.19
2019-06-26T16:42:43.979Z,34.23
2019-06-26T16:45:12.761Z,34.33
2019-06-26T16:47:41.448Z,34.22
2019-06-26T16:50:13.477Z,34.59
2019-06-26T16:52:49.634Z,33.87
2019-06-26T16:55:15.368Z,33.76
2019-06-26T16:57:44.191Z,33.72
2019-06-26T17:00:12.973Z,33.96
2019-06-26T17:02:41.793Z,33.94
2019-06-26T17:05:12.044Z,33.75
2019-06-26T17:07:40.705Z,33.67
2019-06-26T17:10:11.938Z,33.95
2019-06-26T17:12:40.657Z,33.81
2019-06-26T17:15:12.611Z,33.96
2019-06-26T17:17:41.296Z,33.72
2019-06-26T17:20:10.371Z,33.55
2019-06-26T17:22:39.113Z,33.57
2019-06-26T17:25:08.334Z,33.52
2019-06-26T17:27:39.899Z,33.59
2019-06-26T17:30:09.913Z,33.55
2019-06-26T17:32:38.594Z,33.24
2019-06-26T17:35:09.171Z,33.13
2019-06-26T17:37:37.868Z,33.51
2019-06-26T17:40:07.380Z,33.51
2019-06-26T17:42:36.097Z,33.28
2019-06-26T17:45:08.779Z,33.03
2019-06-26T17:47:38.493Z,33.17
2019-06-26T17:50:08.647Z,33.32
2019-06-26T17:52:38.533Z,33.67
2019-06-26T17:55:08.886Z,33.43
2019-06-26T17:57:37.748Z,33.71
2019-06-26T18:00:08.160Z,33.53
2019-06-26T18:02:36.880Z,33.64
2019-06-26T18:05:07.625Z,33.66
2019-06-26T18:07:36.333Z,33.96
2019-06-26T18:10:06.348Z,34.09
2019-06-26T18:12:35.044Z,33.68
2019-06-26T18:15:04.683Z,33.27
2019-06-26T18:20:07.154Z,33.15
2019-06-26T18:22:35.915Z,33.17
2019-06-26T18:25:06.275Z,33.13
2019-06-26T18:27:35.022Z,32.85
2019-06-26T18:30:05.319Z,32.74
2019-06-26T18:32:34.312Z,32.87
2019-06-26T18:35:03.125Z,32.90
2019-06-26T18:37:31.723Z,32.75
2019-06-26T18:40:00.340Z,32.44
2019-06-26T18:42:29.066Z,32.39
2019-06-26T18:44:59.337Z,32.02
2019-06-26T18:47:28.025Z,32.26
2019-06-26T18:49:56.737Z,32.21
2019-06-26T18:52:25.426Z,32.40
2019-06-26T18:54:54.077Z,32.14
2019-06-26T18:57:22.695Z,32.23
2019-06-26T18:59:52.589Z,31.70
2019-06-26T19:02:21.198Z,31.58
2019-06-26T19:04:54.205Z,31.36
2019-06-26T19:07:23.038Z,31.31
2019-06-26T19:09:51.761Z,31.12
2019-06-26T19:12:20.457Z,30.96
2019-06-26T19:14:49.062Z,30.76
2019-06-26T19:17:17.707Z,30.64
2019-06-26T19:19:46.390Z,30.77
2019-06-26T19:22:15.182Z,30.54
2019-06-26T19:24:43.820Z,30.57
2019-06-26T19:27:12.467Z,30.58
2019-06-26T19:29:41.151Z,30.75
2019-06-26T19:32:11.278Z,30.48
2019-06-26T19:34:39.975Z,30.52
2019-06-26T19:37:08.695Z,30.54
2019-06-26T19:39:38.231Z,30.47
2019-06-26T19:42:06.946Z,30.38
2019-06-26T19:44:35.631Z,30.31
2019-06-26T19:47:04.349Z,29.99
2019-06-26T19:49:32.966Z,30.14
2019-06-26T19:52:01.602Z,30.21
2019-06-26T19:54:32.356Z,30.35
2019-06-26T19:57:00.702Z,30.30
2019-06-26T19:59:29.317Z,30.35
2019-06-26T20:01:57.997Z,30.27
2019-06-26T20:04:26.608Z,29.92
2019-06-26T20:06:55.230Z,29.90
2019-06-26T20:09:27.416Z,30.08
2019-06-26T20:11:56.335Z,30.21
2019-06-26T20:14:26.522Z,30.02
2019-06-26T20:16:55.133Z,30.01
2019-06-26T20:19:23.865Z,30.09
2019-06-26T20:21:56.059Z,29.93
2019-06-26T20:24:25.025Z,29.81
2019-06-26T20:26:53.715Z,29.70
2019-06-26T20:29:24.491Z,29.79
2019-06-26T20:31:52.792Z,29.57
2019-06-26T20:34:21.475Z,29.54
2019-06-26T20:36:50.123Z,29.48
2019-06-26T20:39:22.674Z,29.43
2019-06-26T20:41:52.299Z,29.53
2019-06-26T20:44:20.968Z,29.23
2019-06-26T20:46:49.633Z,29.15
2019-06-26T20:49:18.277Z,29.26
2019-06-26T20:51:46.941Z,29.16
2019-06-26T20:54:15.661Z,29.06
2019-06-26T20:56:44.674Z,29.11
2019-06-26T20:59:13.351Z,28.96
2019-06-26T21:01:42.062Z,28.87
2019-06-26T21:04:10.670Z,28.80
2019-06-26T21:06:40.367Z,29.16
2019-06-26T21:09:09.318Z,28.79
2019-06-26T21:11:37.950Z,28.91
2019-06-26T21:14:06.569Z,28.90
2019-06-26T21:16:35.205Z,28.70
2019-06-26T21:19:03.831Z,28.92
2019-06-26T21:21:32.465Z,28.75
2019-06-26T21:24:01.185Z,28.76
2019-06-26T21:26:29.816Z,28.90
2019-06-26T21:29:00.781Z,28.73
2019-06-26T21:31:29.127Z,28.76
2019-06-26T21:33:57.843Z,28.51
2019-06-26T21:36:26.518Z,28.69
2019-06-26T21:38:55.162Z,28.79
2019-06-26T21:41:23.898Z,28.42
2019-06-26T21:43:52.480Z,28.17
2019-06-26T21:46:21.193Z,28.35
2019-06-26T21:48:49.804Z,28.60
2019-06-26T21:51:18.446Z,28.81
2019-06-26T21:53:47.084Z,28.78
2019-06-26T21:56:15.697Z,28.66
2019-06-26T21:58:44.425Z,28.53
2019-06-26T22:01:13.109Z,28.59
2019-06-26T22:03:44.654Z,28.54
2019-06-26T22:06:12.547Z,28.45
2019-06-26T22:08:45.321Z,28.50
2019-06-26T22:11:13.550Z,28.40
2019-06-26T22:13:42.191Z,28.56
2019-06-26T22:16:10.815Z,28.58
2019-06-26T22:18:41.161Z,28.45
2019-06-26T22:21:09.863Z,28.43
2019-06-26T22:23:40.536Z,28.47
2019-06-26T22:26:09.101Z,28.18
2019-06-26T22:28:37.781Z,28.33
2019-06-26T22:31:06.928Z,28.27
2019-06-26T22:33:35.586Z,28.34
2019-06-26T22:36:06.335Z,28.43
2019-06-26T22:38:35.471Z,28.39
2019-06-26T22:41:04.119Z,28.44
2019-06-26T22:43:32.586Z,28.23
2019-06-26T22:46:01.758Z,28.24
2019-06-26T22:48:30.369Z,27.96
2019-06-26T22:50:59.013Z,27.94
2019-06-26T22:53:27.663Z,27.83
2019-06-26T22:56:07.027Z,27.96
2019-06-26T22:58:26.712Z,27.81
2019-06-26T23:00:55.401Z,28.02
2019-06-26T23:03:29.121Z,27.91
2019-06-26T23:05:56.707Z,27.90
2019-06-26T23:08:25.422Z,27.87
2019-06-26T23:10:54.037Z,27.94
2019-06-26T23:13:22.672Z,27.78
2019-06-26T23:15:51.867Z,27.82
2019-06-26T23:18:20.559Z,27.56
2019-06-26T23:20:49.185Z,27.69
2019-06-26T23:23:19.277Z,27.61
2019-06-26T23:25:47.889Z,27.67
2019-06-26T23:28:16.533Z,27.73
2019-06-26T23:30:45.216Z,27.71
2019-06-26T23:33:13.847Z,27.66
2019-06-26T23:35:42.466Z,27.77
2019-06-26T23:38:11.114Z,27.70
2019-06-26T23:40:39.801Z,27.52
2019-06-26T23:43:08.495Z,27.58
2019-06-26T23:45:37.122Z,27.79
2019-06-26T23:48:05.842Z,27.63
2019-06-26T23:50:34.473Z,27.60
2019-06-26T23:53:03.155Z,27.72
2019-06-26T23:55:31.750Z,27.69
2019-06-26T23:58:00.400Z,27.66
